Belize City, Belize

10:57 AM CST on May 03, 2015 (GMT -0600)
Slaughter House Rd | | Change Station
CLOSE
Current Station
Personal Weather Station
Location: Belize City,
Elevation: 10 ft
Nearby Weather Stations

Elev 10 ft 17.49 °N, 88.19 °W | Updated 18 seconds ago

Scattered Clouds
Scattered Clouds
81.9 °F
Feels Like 86 °F
N
12.4
Wind Variable Wind from ENE
Gusts 12.4 mph

Today
High -- | Low -- °F
--% Chance of Precip.
Yesterday
High -- | Low -- °F
Precip. -- in
5:25 AM 6:13 PM
Full, 100% visible
Pressure 29.99 in
Visibility 6.2 miles
Clouds Mostly Cloudy 2200 ft
Scattered Clouds 4800 ft
Heat Index 86 °F
Dew Point 70 °F
Humidity 67%
Rainfall 1.75 in
Snow Depth Not available.
UV 12 out of 12
Pollen Not available.
Air Quality Not available.
Flu Activity Not available.
METAR MZBZ 031600Z 06006KT 9999 BKN022 SCT048 28/23 A2999 Q1015 NOSIG

More Conditions Fewer Conditions

Pressure 29.99 in
Visibility 6.2 miles
Clouds Mostly Cloudy 2200 ft
Scattered Clouds 4800 ft
Heat Index 86 °F
Dew Point 70 °F
Humidity 67%
Rainfall 1.75 in
Snow Depth Not available.
UV 12 out of 12
Pollen Not available.
Air Quality Not available.
Flu Activity Not available.
METAR MZBZ 031600Z 06006KT 9999 BKN022 SCT048 28/23 A2999 Q1015 NOSIG

More Conditions Fewer Conditions

10-Day Weather Forecast

Almanac

Astronomy

May. 03, 2015 Rise Set
Actual Time
Civil Twilight
Nautical Twilight
Astronomical Twilight
Moon
Length of Visible Light
Length of Day
Tomorrow will be .
, % of the Moon is Illuminated

Today's Extremes

Country Highs Country Lows

Community

WunderPhotos

Upload Photos

1,818,274 photos uploaded!

WunderBlogs® & News

Nearby

Air Quality

  Air Quality AQ Index Pollutant
Not available.

Snow Depth

Station Depth Elevation

Earthquake Activity

City Distance Mag. Time & Date
Minimum magnitude displayed is 2.5.

Coastal Water Temperatures

Place Temperature

Stations

Nearby Weather Stations

Station Location Temp. Windchill Dew Point Humidity Wind Precip. Elev Updated Type